createdAt,value
2019-04-25T00:01:32.941Z,30.43
2019-04-25T00:04:02.004Z,30.87
2019-04-25T00:06:32.100Z,30.40
2019-04-25T00:09:01.829Z,30.77
2019-04-25T00:11:31.260Z,32.03
2019-04-25T00:13:59.223Z,31.20
2019-04-25T00:16:28.818Z,34.30
2019-04-25T00:18:56.949Z,31.57
2019-04-25T00:21:34.096Z,32.43
2019-04-25T00:24:06.125Z,32.93
2019-04-25T00:26:53.490Z,33.03
2019-04-25T00:29:22.028Z,31.60
2019-04-25T00:31:51.353Z,32.50
2019-04-25T00:34:19.264Z,32.43
2019-04-25T00:36:47.075Z,33.37
2019-04-25T00:39:14.936Z,32.40
2019-04-25T00:41:45.162Z,32.33
2019-04-25T00:44:12.328Z,32.83
2019-04-25T00:46:40.134Z,34.00
2019-04-25T00:49:08.160Z,32.30
2019-04-25T00:51:35.972Z,32.33
2019-04-25T00:54:03.882Z,33.17
2019-04-25T00:56:32.214Z,31.63
2019-04-25T00:59:18.030Z,32.83
2019-04-25T01:02:03.225Z,32.73
2019-04-25T01:04:33.564Z,32.10
2019-04-25T01:07:01.515Z,32.57
2019-04-25T01:09:29.949Z,33.50
2019-04-25T01:11:57.730Z,33.53
2019-04-25T01:14:25.526Z,32.07
2019-04-25T01:16:53.924Z,32.20
2019-04-25T01:19:23.447Z,32.20
2019-04-25T01:21:51.499Z,33.07
2019-04-25T01:24:19.442Z,32.90
2019-04-25T01:26:47.508Z,33.90
2019-04-25T01:29:15.349Z,33.30
2019-04-25T01:31:43.478Z,32.90
2019-04-25T01:34:14.135Z,33.23
2019-04-25T01:37:04.215Z,32.63
2019-04-25T01:39:49.311Z,32.43
2019-04-25T01:42:51.582Z,32.00
2019-04-25T01:45:21.860Z,31.80
2019-04-25T01:47:50.150Z,32.43
2019-04-25T01:50:17.909Z,32.43
2019-04-25T01:52:45.791Z,32.10
2019-04-25T01:55:13.805Z,32.73
2019-04-25T01:57:41.680Z,32.00
2019-04-25T02:00:11.704Z,32.40
2019-04-25T02:02:39.519Z,33.40
2019-04-25T02:05:07.418Z,33.20
2019-04-25T02:07:35.533Z,32.07
2019-04-25T02:10:04.079Z,32.53
2019-04-25T02:12:40.820Z,32.13
2019-04-25T02:15:08.962Z,33.50
2019-04-25T02:17:36.918Z,32.87
2019-04-25T02:20:05.086Z,32.93
2019-04-25T02:22:34.182Z,32.50
2019-04-25T02:25:04.466Z,33.40
2019-04-25T02:27:32.278Z,31.43
2019-04-25T02:30:01.035Z,32.17
2019-04-25T02:32:28.861Z,31.10
2019-04-25T02:35:00.593Z,32.50
2019-04-25T02:37:26.284Z,32.13
2019-04-25T02:39:58.018Z,32.70
2019-04-25T02:42:24.650Z,33.23
2019-04-25T02:45:03.170Z,33.13
2019-04-25T02:47:56.241Z,34.07
2019-04-25T02:50:49.203Z,33.03
2019-04-25T02:53:36.644Z,32.30
2019-04-25T02:56:07.949Z,33.00
2019-04-25T02:58:34.286Z,33.83
2019-04-25T03:01:16.244Z,33.93
2019-04-25T03:03:34.788Z,33.73
2019-04-25T03:06:03.718Z,33.13
2019-04-25T03:08:32.634Z,32.23
2019-04-25T03:11:01.427Z,33.53
2019-04-25T03:13:29.534Z,32.40
2019-04-25T03:15:58.550Z,33.37
2019-04-25T03:18:28.324Z,32.10
2019-04-25T03:21:18.082Z,33.60
2019-04-25T03:23:47.971Z,32.50
2019-04-25T03:26:15.781Z,32.80
2019-04-25T03:28:43.888Z,33.10
2019-04-25T03:31:18.627Z,34.20
2019-04-25T03:33:41.520Z,33.73
2019-04-25T03:36:09.442Z,34.17
2019-04-25T03:38:37.267Z,34.53
2019-04-25T03:41:06.142Z,32.73
2019-04-25T03:43:34.853Z,33.80
2019-04-25T03:46:04.945Z,33.30
2019-04-25T03:48:35.186Z,32.47
2019-04-25T03:51:02.845Z,32.67
2019-04-25T03:53:31.765Z,32.00
2019-04-25T03:55:59.633Z,31.90
2019-04-25T03:58:27.417Z,32.17
2019-04-25T04:00:55.359Z,32.93
2019-04-25T04:03:23.814Z,32.07
2019-04-25T04:05:51.668Z,31.87
2019-04-25T04:08:19.555Z,31.80
2019-04-25T04:10:47.341Z,31.37
2019-04-25T04:13:15.861Z,31.93
2019-04-25T04:15:43.775Z,30.93
2019-04-25T04:18:20.323Z,31.90
2019-04-25T04:21:17.267Z,32.27
2019-04-25T04:23:52.327Z,31.57
2019-04-25T04:26:20.159Z,31.13
2019-04-25T04:28:47.939Z,32.07
2019-04-25T04:31:16.543Z,31.70
2019-04-25T04:33:44.594Z,32.20
2019-04-25T04:36:14.649Z,31.27
2019-04-25T04:38:42.128Z,31.40
2019-04-25T04:41:09.986Z,31.13
2019-04-25T04:43:37.758Z,30.40
2019-04-25T04:46:05.750Z,31.10
2019-04-25T04:48:34.202Z,31.43
2019-04-25T04:51:03.427Z,30.87
2019-04-25T04:53:31.574Z,29.43
2019-04-25T04:55:59.393Z,28.57
2019-04-25T04:58:27.275Z,29.63
2019-04-25T05:00:55.207Z,30.13
2019-04-25T05:03:44.086Z,30.50
2019-04-25T05:06:31.639Z,29.63
2019-04-25T05:09:07.938Z,29.47
2019-04-25T05:11:35.820Z,28.90
2019-04-25T05:14:04.040Z,30.10
2019-04-25T05:16:33.188Z,29.47
2019-04-25T05:19:01.256Z,29.00
2019-04-25T05:21:29.042Z,29.67
2019-04-25T05:23:56.911Z,28.00
2019-04-25T05:26:25.044Z,29.37
2019-04-25T05:28:53.312Z,29.27
2019-04-25T05:31:37.659Z,28.53
2019-04-25T05:34:05.582Z,28.17
2019-04-25T05:36:39.323Z,29.03
2019-04-25T05:39:09.321Z,28.47
2019-04-25T05:41:44.275Z,27.77
2019-04-25T05:44:12.129Z,27.80
2019-04-25T05:46:42.089Z,27.43
2019-04-25T05:49:10.182Z,28.03
2019-04-25T05:51:38.129Z,27.73
2019-04-25T05:54:06.011Z,27.10
2019-04-25T05:56:33.971Z,27.13
2019-04-25T05:59:03.377Z,27.43
2019-04-25T06:01:31.503Z,27.03
2019-04-25T06:03:59.334Z,26.47
2019-04-25T06:06:27.234Z,26.47
2019-04-25T06:09:03.735Z,27.27
2019-04-25T06:11:48.757Z,27.00
2019-04-25T06:14:18.308Z,25.87
2019-04-25T06:16:46.234Z,25.67
2019-04-25T06:19:33.709Z,26.07
2019-04-25T06:22:03.191Z,26.63
2019-04-25T06:24:45.042Z,25.20
2019-04-25T06:27:33.240Z,26.27
2019-04-25T06:30:08.603Z,25.27
2019-04-25T06:32:36.454Z,26.37
2019-04-25T06:35:05.760Z,25.30
2019-04-25T06:37:35.046Z,26.17
2019-04-25T06:40:05.148Z,25.93
2019-04-25T06:42:34.690Z,24.57
2019-04-25T06:45:21.499Z,25.73
2019-04-25T06:48:11.718Z,26.73
2019-04-25T06:50:39.567Z,25.20
2019-04-25T06:53:07.413Z,26.47
2019-04-25T06:55:35.274Z,25.50
2019-04-25T06:58:10.199Z,25.53
2019-04-25T07:00:40.766Z,25.53
2019-04-25T07:03:04.179Z,25.33
2019-04-25T07:05:35.869Z,25.23
2019-04-25T07:08:03.198Z,25.13
2019-04-25T07:10:31.532Z,25.00
2019-04-25T07:13:00.919Z,24.70
2019-04-25T07:15:29.533Z,25.27
2019-04-25T07:17:57.479Z,25.50
2019-04-25T07:20:27.039Z,25.00
2019-04-25T07:22:55.559Z,25.60
2019-04-25T07:25:27.110Z,25.33
2019-04-25T07:28:32.836Z,25.57
2019-04-25T07:31:36.986Z,24.27
2019-04-25T07:34:13.307Z,24.80
2019-04-25T07:36:41.141Z,23.80
2019-04-25T07:39:10.564Z,24.33
2019-04-25T07:41:38.824Z,23.83
2019-04-25T07:44:06.723Z,23.47
2019-04-25T07:46:38.582Z,24.50
2019-04-25T07:49:04.468Z,24.97
2019-04-25T07:51:34.313Z,24.43
2019-04-25T07:54:01.956Z,24.53
2019-04-25T07:56:29.770Z,24.23
2019-04-25T07:58:57.617Z,24.07
2019-04-25T08:01:25.482Z,23.30
2019-04-25T08:03:53.836Z,23.77
2019-04-25T08:06:22.653Z,23.63
2019-04-25T08:08:51.707Z,23.40
2019-04-25T08:11:19.551Z,23.43
2019-04-25T08:13:53.573Z,24.43
2019-04-25T08:16:23.367Z,22.73
2019-04-25T08:18:51.442Z,22.23
2019-04-25T08:21:19.526Z,23.53
2019-04-25T08:23:48.704Z,23.20
2019-04-25T08:26:16.564Z,23.53
2019-04-25T08:28:54.436Z,22.20
2019-04-25T08:31:14.072Z,23.17
2019-04-25T08:33:43.478Z,23.90
2019-04-25T08:36:11.611Z,22.60
2019-04-25T08:38:40.246Z,22.93
2019-04-25T08:41:08.277Z,22.70
2019-04-25T08:43:37.749Z,22.20
2019-04-25T08:46:06.026Z,22.00
2019-04-25T08:48:54.019Z,21.70
2019-04-25T08:51:23.398Z,21.53
2019-04-25T08:53:59.910Z,21.20
2019-04-25T08:56:31.930Z,22.33
2019-04-25T08:59:32.755Z,21.53
2019-04-25T09:02:10.225Z,22.40
2019-04-25T09:04:43.008Z,21.37
2019-04-25T09:07:13.454Z,21.53
2019-04-25T09:09:41.534Z,21.03
2019-04-25T09:12:09.416Z,20.10
2019-04-25T09:14:37.823Z,21.00
2019-04-25T09:17:05.788Z,20.70
2019-04-25T09:19:35.986Z,20.70
2019-04-25T09:22:03.413Z,20.73
2019-04-25T09:24:31.281Z,20.53
2019-04-25T09:26:59.093Z,19.60
2019-04-25T09:29:26.960Z,20.03
2019-04-25T09:31:54.785Z,19.10
2019-04-25T09:34:23.786Z,18.50
2019-04-25T09:36:53.484Z,19.13
2019-04-25T09:39:29.088Z,18.73
2019-04-25T09:41:56.991Z,18.50
2019-04-25T09:44:30.436Z,18.80
2019-04-25T09:46:58.264Z,17.43
2019-04-25T09:49:30.441Z,17.13
2019-04-25T09:52:06.401Z,17.67
2019-04-25T09:54:53.718Z,16.70
2019-04-25T09:57:44.523Z,18.03
2019-04-25T10:00:23.182Z,16.17
2019-04-25T10:02:51.068Z,17.37
2019-04-25T10:05:18.935Z,17.50
2019-04-25T10:07:48.891Z,15.77
2019-04-25T10:10:16.658Z,15.10
2019-04-25T10:12:45.278Z,15.10
2019-04-25T10:15:19.938Z,15.63
2019-04-25T10:17:47.823Z,15.10
2019-04-25T10:20:17.564Z,15.87
2019-04-25T10:22:45.696Z,15.70
2019-04-25T10:25:15.315Z,14.97
2019-04-25T10:27:46.506Z,16.07
2019-04-25T10:30:19.050Z,16.00
2019-04-25T10:32:44.295Z,15.73
2019-04-25T10:35:14.665Z,16.30
2019-04-25T10:37:43.712Z,15.03
2019-04-25T10:40:13.505Z,15.47
2019-04-25T10:42:41.318Z,15.50
2019-04-25T10:45:20.410Z,15.50
2019-04-25T10:47:40.200Z,15.10
2019-04-25T10:50:08.912Z,14.83
2019-04-25T10:52:36.820Z,14.60
2019-04-25T10:55:05.176Z,13.93
2019-04-25T10:57:33.980Z,13.53
2019-04-25T11:00:07.548Z,14.03
2019-04-25T11:02:33.550Z,13.43
2019-04-25T11:05:08.271Z,13.33
2019-04-25T11:07:36.129Z,13.43
2019-04-25T11:10:05.115Z,13.30
2019-04-25T11:12:33.827Z,12.63
2019-04-25T11:15:03.846Z,13.20
2019-04-25T11:17:31.773Z,13.30
2019-04-25T11:19:59.584Z,13.10
2019-04-25T11:22:27.580Z,13.53
2019-04-25T11:24:55.393Z,12.43
2019-04-25T11:27:23.976Z,12.73
2019-04-25T11:29:53.553Z,13.07
2019-04-25T11:32:24.124Z,13.77
2019-04-25T11:34:53.478Z,12.67
2019-04-25T11:37:23.925Z,13.30
2019-04-25T11:39:59.341Z,13.83
2019-04-25T11:42:27.570Z,13.07
2019-04-25T11:44:55.591Z,13.87
2019-04-25T11:47:24.264Z,14.13
2019-04-25T11:49:52.255Z,13.63
2019-04-25T11:52:27.579Z,13.67
2019-04-25T11:54:50.085Z,13.87
2019-04-25T11:57:18.009Z,14.67
2019-04-25T11:59:48.904Z,14.67
2019-04-25T12:02:15.674Z,15.87
2019-04-25T12:04:45.438Z,15.80
2019-04-25T12:07:14.334Z,15.77
2019-04-25T12:09:43.156Z,16.20
2019-04-25T12:12:11.895Z,15.63
2019-04-25T12:14:39.812Z,15.07
2019-04-25T12:17:07.759Z,15.57
2019-04-25T12:19:37.891Z,15.30
2019-04-25T12:22:05.351Z,14.53
2019-04-25T12:24:33.559Z,14.63
2019-04-25T12:27:01.801Z,14.87
2019-04-25T12:29:29.645Z,13.93
2019-04-25T12:31:58.584Z,13.87
2019-04-25T12:34:26.569Z,14.97
2019-04-25T12:36:55.266Z,13.27
2019-04-25T12:39:24.359Z,13.27
2019-04-25T12:41:53.989Z,13.53
2019-04-25T12:44:46.274Z,13.20
2019-04-25T12:47:17.720Z,13.30
2019-04-25T12:49:46.625Z,13.93
2019-04-25T12:52:14.889Z,13.93
2019-04-25T12:54:44.080Z,13.80
2019-04-25T12:57:14.092Z,14.30
2019-04-25T12:59:44.952Z,14.03
2019-04-25T13:02:13.613Z,15.00
2019-04-25T13:04:41.601Z,15.30
2019-04-25T13:07:09.812Z,15.93
2019-04-25T13:09:37.930Z,16.37
2019-04-25T13:12:06.283Z,15.60
2019-04-25T13:14:34.103Z,16.97
2019-04-25T13:17:03.821Z,17.30
2019-04-25T13:19:31.559Z,17.97
2019-04-25T13:21:59.411Z,16.87
2019-04-25T13:24:27.229Z,17.73
2019-04-25T13:27:01.363Z,17.87
2019-04-25T13:29:57.341Z,18.43
2019-04-25T13:32:43.321Z,19.27
2019-04-25T13:35:20.712Z,18.33
2019-04-25T13:37:48.541Z,19.37
2019-04-25T13:40:17.604Z,20.07
2019-04-25T13:42:46.156Z,20.27
2019-04-25T13:45:15.427Z,19.97
2019-04-25T13:47:43.230Z,20.47
2019-04-25T13:50:12.957Z,19.53
2019-04-25T13:52:41.055Z,19.87
2019-04-25T13:55:09.073Z,19.40
2019-04-25T13:57:37.025Z,17.90
2019-04-25T14:00:05.521Z,18.73
2019-04-25T14:02:33.312Z,17.13
2019-04-25T14:05:01.124Z,19.23
2019-04-25T14:07:29.564Z,19.80
2019-04-25T14:09:57.486Z,18.50
2019-04-25T14:12:26.890Z,19.97
2019-04-25T14:14:55.187Z,21.67
2019-04-25T14:17:51.053Z,20.87
2019-04-25T14:20:53.750Z,21.83
2019-04-25T14:23:24.459Z,22.20
2019-04-25T14:25:52.797Z,23.10
2019-04-25T14:28:20.929Z,23.20
2019-04-25T14:30:49.765Z,25.40
2019-04-25T14:33:17.630Z,24.40
2019-04-25T14:35:45.405Z,24.70
2019-04-25T14:38:13.851Z,24.00
2019-04-25T14:40:42.293Z,24.30
2019-04-25T14:43:10.823Z,23.07
2019-04-25T14:45:44.788Z,22.97
2019-04-25T14:48:10.887Z,21.83
2019-04-25T14:50:38.801Z,21.77
2019-04-25T14:53:06.606Z,21.53
2019-04-25T14:55:53.973Z,20.17
2019-04-25T14:58:26.125Z,23.10
2019-04-25T15:00:53.381Z,24.80
2019-04-25T15:03:21.293Z,22.67
2019-04-25T15:05:49.204Z,21.50
2019-04-25T15:08:17.491Z,20.60
2019-04-25T15:10:45.313Z,22.80
2019-04-25T15:13:13.287Z,24.47
2019-04-25T15:15:41.296Z,23.63
2019-04-25T15:18:09.182Z,24.30
2019-04-25T15:20:37.020Z,24.47
2019-04-25T15:23:04.870Z,25.13
2019-04-25T15:25:32.837Z,25.00
2019-04-25T15:28:00.814Z,24.13
2019-04-25T15:30:31.094Z,24.77
2019-04-25T15:33:00.631Z,24.47
2019-04-25T15:35:40.868Z,24.87
2019-04-25T15:38:13.832Z,24.83
2019-04-25T15:40:47.451Z,26.17
2019-04-25T15:43:26.192Z,24.37
2019-04-25T15:45:59.531Z,24.70
2019-04-25T15:48:27.336Z,25.13
2019-04-25T15:50:55.633Z,24.43
2019-04-25T15:53:23.624Z,23.70
2019-04-25T15:55:51.649Z,24.10
2019-04-25T15:58:19.615Z,23.70
2019-04-25T16:00:47.464Z,23.97
2019-04-25T16:03:15.542Z,22.70
2019-04-25T16:05:43.421Z,22.87
2019-04-25T16:08:11.298Z,22.87
2019-04-25T16:10:39.417Z,22.77
2019-04-25T16:13:07.625Z,23.37
2019-04-25T16:15:36.127Z,23.33
2019-04-25T16:18:05.262Z,22.47
2019-04-25T16:20:33.562Z,22.80
2019-04-25T16:23:01.561Z,22.37
2019-04-25T16:25:29.968Z,23.03
2019-04-25T16:27:58.057Z,23.17
2019-04-25T16:30:29.911Z,23.13
2019-04-25T16:32:57.871Z,23.23
2019-04-25T16:40:41.444Z,24.27
2019-04-25T16:43:12.094Z,23.93
2019-04-25T16:45:39.889Z,24.27
2019-04-25T16:48:07.879Z,22.93
2019-04-25T16:50:36.512Z,24.13
2019-04-25T16:53:04.591Z,24.40
2019-04-25T16:55:32.361Z,24.47
2019-04-25T16:58:00.290Z,23.83
2019-04-25T17:00:40.897Z,24.77
2019-04-25T17:03:08.879Z,24.33
2019-04-25T17:05:37.994Z,24.67
2019-04-25T17:08:05.920Z,24.57
2019-04-25T17:10:34.770Z,24.97
2019-04-25T17:13:02.666Z,24.90
2019-04-25T17:15:48.439Z,25.07
2019-04-25T17:18:22.420Z,24.63
2019-04-25T17:21:06.974Z,24.33
2019-04-25T17:23:34.958Z,24.57
2019-04-25T17:26:03.652Z,25.57
2019-04-25T17:28:34.888Z,25.97
2019-04-25T17:31:22.915Z,24.83
2019-04-25T17:34:00.934Z,26.47
2019-04-25T17:36:38.598Z,23.90
2019-04-25T17:39:42.189Z,26.07
2019-04-25T17:42:10.272Z,25.07
2019-04-25T17:44:38.379Z,25.77
2019-04-25T17:47:06.923Z,24.03
2019-04-25T17:49:34.923Z,26.20
2019-04-25T17:52:03.084Z,25.37
2019-04-25T17:54:32.753Z,24.77
2019-04-25T17:57:00.750Z,26.43
2019-04-25T17:59:28.659Z,24.53
2019-04-25T18:01:56.708Z,25.37
2019-04-25T18:04:24.741Z,24.60
2019-04-25T18:06:52.751Z,25.20
2019-04-25T18:09:20.773Z,25.17
2019-04-25T18:11:48.750Z,23.83
2019-04-25T18:14:16.985Z,25.00
2019-04-25T18:16:46.271Z,24.10
2019-04-25T18:19:19.310Z,24.33
2019-04-25T18:21:47.245Z,22.77
2019-04-25T18:24:54.106Z,22.90
2019-04-25T18:27:26.210Z,22.70
2019-04-25T18:29:54.622Z,22.30
2019-04-25T18:32:24.178Z,21.53
2019-04-25T18:35:02.500Z,21.17
2019-04-25T18:37:52.587Z,22.13
2019-04-25T18:40:31.843Z,22.23
2019-04-25T18:43:21.849Z,22.50
2019-04-25T18:45:54.079Z,21.80
2019-04-25T18:48:21.985Z,22.43
2019-04-25T18:50:49.877Z,22.53
2019-04-25T18:53:55.436Z,21.80
2019-04-25T18:56:45.630Z,23.00
2019-04-25T18:59:29.658Z,24.03
2019-04-25T19:02:19.649Z,23.43
2019-04-25T19:05:09.861Z,23.90
2019-04-25T19:07:38.617Z,23.20
2019-04-25T19:10:08.607Z,23.60
2019-04-25T19:12:37.676Z,23.83
2019-04-25T19:15:05.850Z,23.17
2019-04-25T19:17:33.829Z,23.10
2019-04-25T19:20:01.738Z,23.90
2019-04-25T19:22:29.720Z,23.23
2019-04-25T19:24:57.778Z,22.63
2019-04-25T19:27:25.734Z,22.97
2019-04-25T19:29:53.778Z,23.00
2019-04-25T19:32:21.724Z,22.60
2019-04-25T19:34:50.910Z,22.17
2019-04-25T19:37:48.547Z,21.83
2019-04-25T19:40:30.268Z,21.10
2019-04-25T19:43:03.254Z,21.40
2019-04-25T19:45:33.248Z,20.73
2019-04-25T19:48:02.309Z,20.57
2019-04-25T19:50:30.281Z,21.10
2019-04-25T19:52:58.085Z,20.30
2019-04-25T19:55:26.022Z,21.40
2019-04-25T19:57:54.035Z,21.40
2019-04-25T20:00:22.284Z,20.97
2019-04-25T20:02:57.675Z,20.17
2019-04-25T20:05:35.038Z,20.23
2019-04-25T20:08:31.218Z,20.67
2019-04-25T20:11:02.800Z,20.00
2019-04-25T20:13:30.776Z,20.40
2019-04-25T20:15:59.404Z,19.83
2019-04-25T20:18:27.434Z,19.57
2019-04-25T20:20:55.237Z,19.33
2019-04-25T20:23:23.084Z,18.50
2019-04-25T20:25:51.469Z,18.87
2019-04-25T20:28:19.276Z,19.53
2019-04-25T20:30:47.162Z,18.87
2019-04-25T20:33:15.141Z,19.70
2019-04-25T20:35:42.935Z,17.93
2019-04-25T20:38:10.729Z,18.37
2019-04-25T20:40:38.607Z,19.40
2019-04-25T20:43:06.403Z,18.70
2019-04-25T20:45:34.426Z,18.20
2019-04-25T20:48:03.580Z,18.57
2019-04-25T20:50:31.409Z,18.00
2019-04-25T20:53:01.079Z,18.33
2019-04-25T20:55:30.842Z,17.97
2019-04-25T20:57:58.521Z,19.13
2019-04-25T21:00:40.529Z,18.17
2019-04-25T21:03:08.423Z,18.57
2019-04-25T21:05:36.508Z,17.27
2019-04-25T21:08:04.438Z,17.87
2019-04-25T21:10:32.497Z,17.93
2019-04-25T21:13:00.704Z,18.27
2019-04-25T21:15:54.110Z,18.33
2019-04-25T21:18:37.113Z,17.57
2019-04-25T21:21:04.911Z,17.57
2019-04-25T21:23:32.790Z,18.10
2019-04-25T21:26:01.229Z,18.13
2019-04-25T21:28:29.247Z,18.33
2019-04-25T21:30:57.069Z,17.83
2019-04-25T21:33:24.899Z,17.80
2019-04-25T21:35:53.301Z,17.90
2019-04-25T21:38:21.607Z,18.07
2019-04-25T21:41:17.792Z,17.67
2019-04-25T21:43:49.785Z,18.30
2019-04-25T21:46:17.831Z,18.63
2019-04-25T21:48:45.987Z,17.37
2019-04-25T21:51:32.191Z,18.13
2019-04-25T21:54:01.403Z,17.47
2019-04-25T21:56:29.717Z,17.83
2019-04-25T21:58:57.756Z,18.23
2019-04-25T22:01:28.718Z,17.40
2019-04-25T22:03:56.703Z,18.60
2019-04-25T22:06:24.889Z,17.93
2019-04-25T22:08:52.693Z,18.73
2019-04-25T22:11:20.522Z,18.07
2019-04-25T22:13:48.744Z,17.80
2019-04-25T22:16:16.679Z,17.60
2019-04-25T22:18:44.753Z,17.27
2019-04-25T22:21:13.888Z,18.00
2019-04-25T22:23:42.034Z,18.07
2019-04-25T22:26:10.296Z,17.23
2019-04-25T22:28:38.701Z,16.70
2019-04-25T22:31:12.447Z,17.20
2019-04-25T22:34:05.804Z,17.40
2019-04-25T22:36:33.931Z,16.87
2019-04-25T22:39:11.224Z,17.77
2019-04-25T22:41:41.441Z,16.77
2019-04-25T22:44:10.919Z,17.00
2019-04-25T22:46:39.923Z,17.03
2019-04-25T22:49:07.752Z,17.07
2019-04-25T22:51:35.787Z,17.20
2019-04-25T22:54:05.272Z,16.60
2019-04-25T22:56:33.244Z,17.80
2019-04-25T22:59:01.564Z,17.37
2019-04-25T23:01:42.776Z,17.53
2019-04-25T23:04:16.707Z,17.80
2019-04-25T23:06:44.936Z,17.37
2019-04-25T23:09:12.779Z,17.17
2019-04-25T23:11:40.600Z,17.00
2019-04-25T23:14:08.867Z,16.20
2019-04-25T23:16:36.956Z,16.97
2019-04-25T23:19:05.111Z,17.10
2019-04-25T23:21:33.262Z,16.83
2019-04-25T23:24:01.068Z,17.07
2019-04-25T23:26:48.321Z,16.63
2019-04-25T23:29:16.461Z,17.13
2019-04-25T23:31:44.326Z,16.73
2019-04-25T23:34:12.852Z,16.77
2019-04-25T23:36:40.830Z,16.83
2019-04-25T23:39:09.919Z,17.07
2019-04-25T23:41:39.987Z,16.77
2019-04-25T23:44:07.996Z,17.00
2019-04-25T23:46:36.126Z,16.97
2019-04-25T23:49:04.669Z,16.17
2019-04-25T23:51:32.601Z,17.10
2019-04-25T23:54:00.693Z,16.90
2019-04-25T23:56:28.519Z,17.40
2019-04-25T23:58:56.858Z,16.57
